createdAt,value
2018-07-24T00:02:15.223Z,15.60
2018-07-24T00:04:47.245Z,14.43
2018-07-24T00:07:18.023Z,14.63
2018-07-24T00:09:48.868Z,14.57
2018-07-24T00:12:19.474Z,15.53
2018-07-24T00:14:50.146Z,14.97
2018-07-24T00:17:20.366Z,15.40
2018-07-24T00:19:51.159Z,14.10
2018-07-24T00:22:21.457Z,14.50
2018-07-24T00:24:51.891Z,15.13
2018-07-24T00:27:22.707Z,15.70
2018-07-24T00:29:53.871Z,14.80
2018-07-24T00:32:24.102Z,13.90
2018-07-24T00:34:54.620Z,14.30
2018-07-24T00:37:25.474Z,16.00
2018-07-24T00:39:56.556Z,20.10
2018-07-24T00:42:27.064Z,15.57
2018-07-24T00:44:58.092Z,15.47
2018-07-24T00:47:32.638Z,16.10
2018-07-24T00:50:03.485Z,15.07
2018-07-24T00:52:33.933Z,15.33
2018-07-24T00:55:04.675Z,14.70
2018-07-24T00:57:35.192Z,15.77
2018-07-24T01:00:05.875Z,15.33
2018-07-24T01:02:36.353Z,15.67
2018-07-24T01:05:07.061Z,15.33
2018-07-24T01:07:39.123Z,15.27
2018-07-24T01:10:10.762Z,16.40
2018-07-24T01:12:41.447Z,14.83
2018-07-24T01:15:11.816Z,16.30
2018-07-24T01:17:42.574Z,16.67
2018-07-24T01:20:12.987Z,16.77
2018-07-24T01:22:43.661Z,16.17
2018-07-24T01:25:14.083Z,16.30
2018-07-24T01:27:44.722Z,16.60
2018-07-24T01:30:15.201Z,16.23
2018-07-24T01:32:45.965Z,16.47
2018-07-24T01:35:16.135Z,16.43
2018-07-24T01:37:47.082Z,15.90
2018-07-24T01:40:17.293Z,16.27
2018-07-24T01:42:48.018Z,16.13
2018-07-24T01:45:18.362Z,15.80
2018-07-24T01:47:49.506Z,14.80
2018-07-24T01:50:20.114Z,14.83
2018-07-24T01:52:50.810Z,14.77
2018-07-24T01:55:21.892Z,15.13
2018-07-24T01:57:53.599Z,16.50
2018-07-24T02:00:23.817Z,15.80
2018-07-24T02:02:55.501Z,15.27
2018-07-24T02:05:25.763Z,16.57
2018-07-24T02:07:59.870Z,15.50
2018-07-24T02:10:30.469Z,16.37
2018-07-24T02:13:00.947Z,16.10
2018-07-24T02:15:30.939Z,16.80
2018-07-24T02:18:01.298Z,17.10
2018-07-24T02:20:31.640Z,16.33
2018-07-24T02:23:02.065Z,16.63
2018-07-24T02:25:32.924Z,15.30
2018-07-24T02:28:03.156Z,16.30
2018-07-24T02:30:33.967Z,16.67
2018-07-24T02:33:03.892Z,18.73
2018-07-24T02:35:35.165Z,16.20
2018-07-24T02:38:05.935Z,17.23
2018-07-24T02:40:36.257Z,18.40
2018-07-24T02:43:11.414Z,17.90
2018-07-24T02:45:42.283Z,16.60
2018-07-24T02:48:12.564Z,16.67
2018-07-24T02:50:42.715Z,18.07
2018-07-24T02:53:13.047Z,18.17
2018-07-24T02:55:43.422Z,19.67
2018-07-24T02:58:14.179Z,17.40
2018-07-24T03:00:44.568Z,20.00
2018-07-24T03:03:14.766Z,18.43
2018-07-24T03:05:45.080Z,17.37
2018-07-24T03:08:15.472Z,17.23
2018-07-24T03:10:46.120Z,17.10
2018-07-24T03:13:16.647Z,17.60
2018-07-24T03:15:49.310Z,17.20
2018-07-24T03:18:19.667Z,17.50
2018-07-24T03:20:50.529Z,18.73
2018-07-24T03:23:20.817Z,17.37
2018-07-24T03:25:51.598Z,15.60
2018-07-24T03:28:21.480Z,17.00
2018-07-24T03:30:53.194Z,17.07
2018-07-24T03:33:23.350Z,17.23
2018-07-24T03:35:54.084Z,17.83
2018-07-24T03:38:24.819Z,17.90
2018-07-24T03:40:55.187Z,18.33
2018-07-24T03:43:25.207Z,18.00
2018-07-24T03:45:55.409Z,17.80
2018-07-24T03:48:25.908Z,19.17
2018-07-24T03:50:56.088Z,18.40
2018-07-24T03:53:26.303Z,20.30
2018-07-24T03:55:56.738Z,20.93
2018-07-24T03:58:27.372Z,21.53
2018-07-24T04:00:57.515Z,21.40
2018-07-24T04:03:28.070Z,22.93
2018-07-24T04:05:58.724Z,21.40
2018-07-24T04:08:29.519Z,19.67
2018-07-24T04:10:59.678Z,20.03
2018-07-24T04:13:30.699Z,18.93
2018-07-24T04:16:01.631Z,18.70
2018-07-24T04:18:38.970Z,19.27
2018-07-24T04:21:09.188Z,18.43
2018-07-24T04:23:39.547Z,18.73
2018-07-24T04:26:09.845Z,19.97
2018-07-24T04:28:41.593Z,17.30
2018-07-24T04:31:13.037Z,17.57
2018-07-24T04:33:44.394Z,18.00
2018-07-24T04:36:14.732Z,17.80
2018-07-24T04:38:45.349Z,17.83
2018-07-24T04:41:15.657Z,17.50
2018-07-24T04:43:45.598Z,18.20
2018-07-24T04:46:15.702Z,19.10
2018-07-24T04:48:46.645Z,19.10
2018-07-24T04:51:17.221Z,17.50
2018-07-24T04:53:48.073Z,18.37
2018-07-24T04:56:18.826Z,16.87
2018-07-24T04:58:49.361Z,16.87
2018-07-24T05:01:19.689Z,16.97
2018-07-24T05:03:50.416Z,17.73
2018-07-24T05:06:20.752Z,16.53
2018-07-24T05:08:51.062Z,16.93
2018-07-24T05:11:21.776Z,16.93
2018-07-24T05:13:52.207Z,16.17
2018-07-24T05:16:22.327Z,17.20
2018-07-24T05:18:52.689Z,17.20
2018-07-24T05:21:22.959Z,16.80
2018-07-24T05:23:53.317Z,15.63
2018-07-24T05:26:23.820Z,15.93
2018-07-24T05:28:55.343Z,19.23
2018-07-24T05:31:25.293Z,15.13
2018-07-24T05:33:55.460Z,14.83
2018-07-24T05:36:26.230Z,16.37
2018-07-24T05:38:56.606Z,15.20
2018-07-24T05:41:27.045Z,14.57
2018-07-24T05:43:57.404Z,14.10
2018-07-24T05:46:32.071Z,16.10
2018-07-24T05:49:02.820Z,15.40
2018-07-24T05:51:33.126Z,14.03
2018-07-24T05:54:03.406Z,14.27
2018-07-24T05:56:33.528Z,17.03
2018-07-24T05:59:03.936Z,14.57
2018-07-24T06:01:34.696Z,13.47
2018-07-24T06:04:04.812Z,13.00
2018-07-24T06:06:34.965Z,12.57
2018-07-24T06:09:06.811Z,13.23
2018-07-24T06:11:37.295Z,12.77
2018-07-24T06:14:07.842Z,12.23
2018-07-24T06:16:38.533Z,13.90
2018-07-24T06:19:09.215Z,11.00
2018-07-24T06:21:39.374Z,11.27
2018-07-24T06:24:10.047Z,11.83
2018-07-24T06:26:40.502Z,14.47
2018-07-24T06:29:10.657Z,13.50
2018-07-24T06:31:40.462Z,11.37
2018-07-24T06:34:10.765Z,10.47
2018-07-24T06:36:41.276Z,11.97
2018-07-24T06:39:13.461Z,10.90
2018-07-24T06:41:44.204Z,13.20
2018-07-24T06:44:14.666Z,13.40
2018-07-24T06:46:45.259Z,10.17
2018-07-24T06:49:16.240Z,12.07
2018-07-24T06:51:46.788Z,12.53
2018-07-24T06:54:17.307Z,9.87
2018-07-24T06:56:47.412Z,10.80
2018-07-24T06:59:18.164Z,10.93
2018-07-24T07:01:48.364Z,14.00
2018-07-24T07:04:19.605Z,11.13
2018-07-24T07:06:50.123Z,10.30
2018-07-24T07:09:20.903Z,14.13
2018-07-24T07:11:50.952Z,11.20
2018-07-24T07:14:21.605Z,9.33
2018-07-24T07:16:51.575Z,11.40
2018-07-24T07:19:22.657Z,11.20
2018-07-24T07:21:53.924Z,12.10
2018-07-24T07:24:24.118Z,9.93
2018-07-24T07:26:55.284Z,8.50
2018-07-24T07:29:25.387Z,14.13
2018-07-24T07:31:55.308Z,8.83
2018-07-24T07:34:26.289Z,8.20
2018-07-24T07:36:56.947Z,8.83
2018-07-24T07:39:27.518Z,9.77
2018-07-24T07:41:57.845Z,9.87
2018-07-24T07:44:28.289Z,9.50
2018-07-24T07:46:58.377Z,11.00
2018-07-24T07:49:28.724Z,9.33
2018-07-24T07:51:59.056Z,14.73
2018-07-24T07:54:29.525Z,11.97
2018-07-24T07:56:59.362Z,8.20
2018-07-24T07:59:29.439Z,11.73
2018-07-24T08:01:59.702Z,8.47
2018-07-24T08:04:29.521Z,8.57
2018-07-24T08:06:59.715Z,10.00
2018-07-24T08:09:29.701Z,8.57
2018-07-24T08:12:00.324Z,8.30
2018-07-24T08:14:29.992Z,8.73
2018-07-24T08:17:00.219Z,13.67
2018-07-24T08:19:29.759Z,8.90
2018-07-24T08:21:59.663Z,11.20
2018-07-24T08:24:29.956Z,11.20
2018-07-24T08:26:59.720Z,6.83
2018-07-24T08:29:38.181Z,7.60
2018-07-24T08:32:08.003Z,9.03
2018-07-24T08:34:41.770Z,5.90
2018-07-24T08:37:11.925Z,7.60
2018-07-24T08:39:41.865Z,7.50
2018-07-24T08:42:32.036Z,5.30
2018-07-24T08:45:01.992Z,8.60
2018-07-24T08:47:32.196Z,7.17
2018-07-24T08:50:02.381Z,9.43
2018-07-24T08:52:32.341Z,8.73
2018-07-24T08:55:01.978Z,8.58
2018-07-24T08:57:31.606Z,7.70
2018-07-24T09:00:01.384Z,7.07
2018-07-24T09:02:32.406Z,8.05
2018-07-24T09:05:02.607Z,6.50
2018-07-24T09:07:32.540Z,8.15
2018-07-24T09:10:02.760Z,8.77
2018-07-24T09:12:32.607Z,6.47
2018-07-24T09:15:02.085Z,6.37
2018-07-24T09:17:32.822Z,6.50
2018-07-24T09:20:03.818Z,7.83
2018-07-24T09:22:33.577Z,6.45
2018-07-24T09:25:03.500Z,7.03
2018-07-24T09:27:34.072Z,9.58
2018-07-24T09:30:04.150Z,6.33
2018-07-24T09:32:35.438Z,8.75
2018-07-24T09:35:05.628Z,5.83
2018-07-24T09:37:35.770Z,5.45
2018-07-24T09:40:06.104Z,5.15
2018-07-24T09:42:35.386Z,9.23
2018-07-24T09:45:05.655Z,7.25
2018-07-24T09:47:35.061Z,5.55
2018-07-24T09:50:06.721Z,5.22
2018-07-24T09:52:36.355Z,6.00
2018-07-24T09:55:05.692Z,5.35
2018-07-24T09:57:40.004Z,5.80
2018-07-24T10:00:09.566Z,5.60
2018-07-24T10:02:39.446Z,9.38
2018-07-24T10:05:09.340Z,7.72
2018-07-24T10:07:40.025Z,5.50
2018-07-24T10:10:10.472Z,6.80
2018-07-24T10:12:40.688Z,5.90
2018-07-24T10:15:11.355Z,5.62
2018-07-24T10:17:41.569Z,20.90
2018-07-24T10:20:11.184Z,8.50
2018-07-24T10:22:40.414Z,17.65
2018-07-24T10:25:11.805Z,7.25
2018-07-24T10:27:41.401Z,4.87
2018-07-24T10:30:10.749Z,7.10
2018-07-24T10:32:40.361Z,5.03
2018-07-24T10:35:10.625Z,6.00
2018-07-24T10:37:41.043Z,4.90
2018-07-24T10:40:12.483Z,6.22
2018-07-24T10:42:42.098Z,6.15
2018-07-24T10:45:12.970Z,6.03
2018-07-24T10:47:48.290Z,13.13
2018-07-24T10:50:18.603Z,5.42
2018-07-24T10:52:48.893Z,5.53
2018-07-24T10:55:19.367Z,5.83
2018-07-24T10:57:49.746Z,6.28
2018-07-24T11:00:20.351Z,7.12
2018-07-24T11:02:50.946Z,7.50
2018-07-24T11:05:20.972Z,6.00
2018-07-24T11:07:51.168Z,5.12
2018-07-24T11:10:21.404Z,7.33
2018-07-24T11:12:51.422Z,5.75
2018-07-24T11:15:21.746Z,5.33
2018-07-24T11:17:51.915Z,5.05
2018-07-24T11:20:21.960Z,5.10
2018-07-24T11:22:51.792Z,5.28
2018-07-24T11:25:21.720Z,5.10
2018-07-24T11:27:51.611Z,5.35
2018-07-24T11:30:21.302Z,7.95
2018-07-24T11:32:50.594Z,6.50
2018-07-24T11:35:20.534Z,4.50
2018-07-24T11:37:50.042Z,8.30
2018-07-24T11:40:21.357Z,4.30
2018-07-24T11:42:52.413Z,4.37
2018-07-24T11:45:22.967Z,6.65
2018-07-24T11:47:52.966Z,6.05
2018-07-24T11:50:23.184Z,6.40
2018-07-24T11:52:53.009Z,5.03
2018-07-24T11:55:23.317Z,5.33
2018-07-24T11:57:53.482Z,4.75
2018-07-24T12:00:23.801Z,8.50
2018-07-24T12:02:53.438Z,5.65
2018-07-24T12:05:27.285Z,5.87
2018-07-24T12:07:56.954Z,6.60
2018-07-24T12:10:28.724Z,4.65
2018-07-24T12:12:58.555Z,5.62
2018-07-24T12:15:28.968Z,7.40
2018-07-24T12:17:59.858Z,4.28
2018-07-24T12:20:30.948Z,5.08
2018-07-24T12:23:01.078Z,6.33
2018-07-24T12:25:30.792Z,8.90
2018-07-24T12:28:00.813Z,12.90
2018-07-24T12:30:31.233Z,5.80
2018-07-24T12:33:01.325Z,5.47
2018-07-24T12:35:30.979Z,4.47
2018-07-24T12:38:00.772Z,4.45
2018-07-24T12:40:30.433Z,6.17
2018-07-24T12:43:00.466Z,8.20
2018-07-24T12:45:30.041Z,4.37
2018-07-24T12:47:59.934Z,4.47
2018-07-24T12:50:30.784Z,5.90
2018-07-24T12:53:01.117Z,5.00
2018-07-24T12:55:30.998Z,4.75
2018-07-24T12:58:02.049Z,4.47
2018-07-24T13:00:32.277Z,4.33
2018-07-24T13:03:02.379Z,5.12
2018-07-24T13:05:33.690Z,4.00
2018-07-24T13:08:03.485Z,4.37
2018-07-24T13:10:33.158Z,4.92
2018-07-24T13:13:05.220Z,5.00
2018-07-24T13:15:35.086Z,6.83
2018-07-24T13:18:05.168Z,3.58
2018-07-24T13:20:35.256Z,6.33
2018-07-24T13:23:05.659Z,4.97
2018-07-24T13:25:39.519Z,4.47
2018-07-24T13:28:09.038Z,4.75
2018-07-24T13:30:38.633Z,4.58
2018-07-24T13:33:09.026Z,4.12
2018-07-24T13:35:38.419Z,4.58
2018-07-24T13:38:07.929Z,3.98
2018-07-24T13:40:37.943Z,3.62
2018-07-24T13:43:07.727Z,3.85
2018-07-24T13:45:37.620Z,6.47
2018-07-24T13:48:09.681Z,4.05
2018-07-24T13:50:39.508Z,4.65
2018-07-24T13:53:09.679Z,3.72
2018-07-24T13:55:39.690Z,4.05
2018-07-24T13:58:09.621Z,3.80
2018-07-24T14:00:39.022Z,3.62
2018-07-24T14:03:08.662Z,3.60
2018-07-24T14:05:38.291Z,4.17
2018-07-24T14:08:08.220Z,3.33
2018-07-24T14:10:37.718Z,3.47
2018-07-24T14:13:07.127Z,3.30
2018-07-24T14:15:36.936Z,3.80
2018-07-24T14:18:06.244Z,3.58
2018-07-24T14:20:41.606Z,3.67
2018-07-24T14:23:11.463Z,5.10
2018-07-24T14:25:41.012Z,4.12
2018-07-24T14:28:10.195Z,3.58
2018-07-24T14:30:42.976Z,3.30
2018-07-24T14:33:12.459Z,3.22
2018-07-24T14:35:42.948Z,3.85
2018-07-24T14:38:13.192Z,6.67
2018-07-24T14:40:43.797Z,5.55
2018-07-24T14:43:13.649Z,3.75
2018-07-24T14:45:43.588Z,5.20
2018-07-24T14:48:13.343Z,5.42
2018-07-24T14:50:42.741Z,3.52
2018-07-24T14:53:12.491Z,3.95
2018-07-24T14:55:42.517Z,4.83
2018-07-24T14:58:12.056Z,4.50
2018-07-24T15:00:42.324Z,4.55
2018-07-24T15:03:11.860Z,5.42
2018-07-24T15:05:47.103Z,3.92
2018-07-24T15:08:17.363Z,4.05
2018-07-24T15:10:46.834Z,4.17
2018-07-24T15:13:23.102Z,3.83
2018-07-24T15:15:53.664Z,4.25
2018-07-24T15:18:24.782Z,4.08
2018-07-24T15:20:54.877Z,3.72
2018-07-24T15:23:25.019Z,4.45
2018-07-24T15:25:55.046Z,5.00
2018-07-24T15:28:25.849Z,4.20
2018-07-24T15:30:55.983Z,5.95
2018-07-24T15:33:25.839Z,3.67
2018-07-24T15:35:55.673Z,3.87
2018-07-24T15:38:25.986Z,5.08
2018-07-24T15:40:56.004Z,3.70
2018-07-24T15:43:25.640Z,4.42
2018-07-24T15:45:55.683Z,6.00
2018-07-24T15:48:24.807Z,3.40
2018-07-24T15:50:54.569Z,4.92
2018-07-24T15:53:24.140Z,3.45
2018-07-24T15:55:53.657Z,4.67
2018-07-24T15:58:22.949Z,4.03
2018-07-24T16:00:52.043Z,4.00
2018-07-24T16:03:23.216Z,3.98
2018-07-24T16:05:52.786Z,4.22
2018-07-24T16:08:22.129Z,5.42
2018-07-24T16:10:51.382Z,6.12
2018-07-24T16:13:20.908Z,4.97
2018-07-24T16:15:50.419Z,3.62
2018-07-24T16:18:19.637Z,5.35
2018-07-24T16:20:49.188Z,4.40
2018-07-24T16:23:18.700Z,5.45
2018-07-24T16:25:48.029Z,3.65
2018-07-24T16:28:17.631Z,5.00
2018-07-24T16:30:47.193Z,4.55
2018-07-24T16:33:16.850Z,5.97
2018-07-24T16:35:46.676Z,4.20
2018-07-24T16:38:15.986Z,3.80
2018-07-24T16:40:48.431Z,3.87
2018-07-24T16:43:17.699Z,5.90
2018-07-24T16:45:47.243Z,5.42
2018-07-24T16:48:16.822Z,4.62
2018-07-24T16:50:46.236Z,4.55
2018-07-24T16:53:15.336Z,4.45
2018-07-24T16:55:44.759Z,3.90
2018-07-24T16:58:14.545Z,4.00
2018-07-24T17:00:43.575Z,4.17
2018-07-24T17:03:13.211Z,4.45
2018-07-24T17:05:44.095Z,6.30
2018-07-24T17:08:13.926Z,5.87
2018-07-24T17:10:43.115Z,4.15
2018-07-24T17:13:12.533Z,5.60
2018-07-24T17:15:42.201Z,5.65
2018-07-24T17:18:11.639Z,4.53
2018-07-24T17:20:41.608Z,4.30
2018-07-24T17:23:16.676Z,5.05
2018-07-24T17:25:46.030Z,4.00
2018-07-24T17:28:15.642Z,4.08
2018-07-24T17:30:45.208Z,4.47
2018-07-24T17:33:15.424Z,4.35
2018-07-24T17:35:44.656Z,4.45
2018-07-24T17:38:15.434Z,4.67
2018-07-24T17:40:45.098Z,4.62
2018-07-24T17:43:14.704Z,4.15
2018-07-24T17:45:44.595Z,4.47
2018-07-24T17:48:14.278Z,5.15
2018-07-24T17:50:44.349Z,3.75
2018-07-24T17:53:14.435Z,3.90
2018-07-24T17:56:03.863Z,4.30
2018-07-24T17:58:34.094Z,5.40
2018-07-24T18:01:04.430Z,4.85
2018-07-24T18:03:34.685Z,5.33
2018-07-24T18:06:05.140Z,6.42
2018-07-24T18:08:35.641Z,6.08
2018-07-24T18:11:07.243Z,6.42
2018-07-24T18:13:37.573Z,6.62
2018-07-24T18:16:07.894Z,5.37
2018-07-24T18:18:38.663Z,4.92
2018-07-24T18:21:09.465Z,4.53
2018-07-24T18:23:39.294Z,6.95
2018-07-24T18:26:09.091Z,5.00
2018-07-24T18:28:38.645Z,8.83
2018-07-24T18:31:08.684Z,5.33
2018-07-24T18:33:38.948Z,5.42
2018-07-24T18:36:09.502Z,6.33
2018-07-24T18:38:39.246Z,12.07
2018-07-24T18:41:09.375Z,5.17
2018-07-24T18:43:39.179Z,5.47
2018-07-24T18:46:13.105Z,7.40
2018-07-24T18:48:42.715Z,4.95
2018-07-24T18:51:12.939Z,7.15
2018-07-24T18:53:43.262Z,5.58
2018-07-24T18:56:13.363Z,5.80
2018-07-24T18:58:43.456Z,5.40
2018-07-24T19:01:13.358Z,8.35
2018-07-24T19:03:51.876Z,7.03
2018-07-24T19:06:22.230Z,8.90
2018-07-24T19:08:52.218Z,9.58
2018-07-24T19:11:22.250Z,9.88
2018-07-24T19:13:52.640Z,8.45
2018-07-24T19:16:23.219Z,9.15
2018-07-24T19:18:53.730Z,7.67
2018-07-24T19:21:24.785Z,9.00
2018-07-24T19:23:55.031Z,6.53
2018-07-24T19:26:25.237Z,9.07
2018-07-24T19:28:55.563Z,10.07
2018-07-24T19:31:25.824Z,8.47
2018-07-24T19:33:56.177Z,10.27
2018-07-24T19:36:25.812Z,9.33
2018-07-24T19:38:56.145Z,9.07
2018-07-24T19:41:26.046Z,9.57
2018-07-24T19:43:55.958Z,8.87
2018-07-24T19:46:25.894Z,7.13
2018-07-24T19:48:56.504Z,7.93
2018-07-24T19:51:26.969Z,7.40
2018-07-24T19:53:57.271Z,7.47
2018-07-24T19:56:27.586Z,9.13
2018-07-24T19:58:58.564Z,9.10
2018-07-24T20:01:29.270Z,12.00
2018-07-24T20:03:59.721Z,37.87
2018-07-24T20:06:30.363Z,63.20
2018-07-24T20:09:00.528Z,31.13
2018-07-24T20:11:30.681Z,14.20
2018-07-24T20:14:00.654Z,16.00
2018-07-24T20:16:31.912Z,20.07
2018-07-24T20:19:02.525Z,22.13
2018-07-24T20:21:33.176Z,14.60
2018-07-24T20:24:03.779Z,23.60
2018-07-24T20:26:34.021Z,36.77
2018-07-24T20:29:04.737Z,41.33
2018-07-24T20:31:35.812Z,19.90
2018-07-24T20:34:06.277Z,11.97
2018-07-24T20:36:36.820Z,14.03
2018-07-24T20:39:10.439Z,8.53
2018-07-24T20:41:42.043Z,11.97
2018-07-24T20:44:12.582Z,43.80
2018-07-24T20:46:43.442Z,24.77
2018-07-24T20:49:14.287Z,14.83
2018-07-24T20:51:44.865Z,10.17
2018-07-24T20:54:14.959Z,9.53
2018-07-24T20:56:45.188Z,8.73
2018-07-24T20:59:15.106Z,7.47
2018-07-24T21:01:45.130Z,8.17
2018-07-24T21:04:15.828Z,11.23
2018-07-24T21:06:46.722Z,12.20
2018-07-24T21:09:16.862Z,7.67
2018-07-24T21:11:47.905Z,12.57
2018-07-24T21:14:18.375Z,8.90
2018-07-24T21:16:48.997Z,9.43
2018-07-24T21:19:19.305Z,11.47
2018-07-24T21:21:49.729Z,9.87
2018-07-24T21:24:20.187Z,9.73
2018-07-24T21:26:50.604Z,9.27
2018-07-24T21:29:21.548Z,9.03
2018-07-24T21:31:52.890Z,16.93
2018-07-24T21:34:23.120Z,13.30
2018-07-24T21:36:53.195Z,12.07
2018-07-24T21:39:23.896Z,15.33
2018-07-24T21:41:55.212Z,8.97
2018-07-24T21:44:26.495Z,12.67
2018-07-24T21:46:56.983Z,11.67
2018-07-24T21:49:27.170Z,11.40
2018-07-24T21:51:57.267Z,9.30
2018-07-24T21:54:28.162Z,9.77
2018-07-24T21:56:58.554Z,11.60
2018-07-24T21:59:29.888Z,10.63
2018-07-24T22:02:00.607Z,8.00
2018-07-24T22:04:30.761Z,8.67
2018-07-24T22:07:02.073Z,9.33
2018-07-24T22:09:32.947Z,7.40
2018-07-24T22:12:04.503Z,8.40
2018-07-24T22:14:36.569Z,13.43
2018-07-24T22:17:07.168Z,7.10
2018-07-24T22:19:37.707Z,11.47
2018-07-24T22:22:08.585Z,8.27
2018-07-24T22:24:38.952Z,10.20
2018-07-24T22:27:09.331Z,9.97
2018-07-24T22:29:39.579Z,7.80
2018-07-24T22:32:09.397Z,8.77
2018-07-24T22:34:40.004Z,10.13
2018-07-24T22:37:10.009Z,7.87
2018-07-24T22:39:40.729Z,10.27
2018-07-24T22:42:10.968Z,9.00
2018-07-24T22:44:40.933Z,8.43
2018-07-24T22:47:11.490Z,7.60
2018-07-24T22:49:43.942Z,8.07
2018-07-24T22:52:14.830Z,7.73
2018-07-24T22:54:45.005Z,9.77
2018-07-24T22:57:15.809Z,7.50
2018-07-24T22:59:46.639Z,10.23
2018-07-24T23:02:16.723Z,10.80
2018-07-24T23:04:46.844Z,10.33
2018-07-24T23:07:17.140Z,9.07
2018-07-24T23:09:47.643Z,9.30
2018-07-24T23:12:17.596Z,10.70
2018-07-24T23:14:47.292Z,9.77
2018-07-24T23:17:18.017Z,7.97
2018-07-24T23:19:48.572Z,9.20
2018-07-24T23:22:18.692Z,8.43
2018-07-24T23:24:49.133Z,11.83
2018-07-24T23:27:19.307Z,8.20
2018-07-24T23:29:49.586Z,8.70
2018-07-24T23:32:19.932Z,12.63
2018-07-24T23:34:49.861Z,9.03
2018-07-24T23:37:19.682Z,9.60
2018-07-24T23:39:50.941Z,8.83
2018-07-24T23:42:21.289Z,9.33
2018-07-24T23:44:51.225Z,8.43
2018-07-24T23:47:21.192Z,8.27
2018-07-24T23:49:51.338Z,9.20
2018-07-24T23:52:21.378Z,9.13
2018-07-24T23:54:51.482Z,11.03
2018-07-24T23:57:21.939Z,10.87
2018-07-24T23:59:52.426Z,11.13
